PWSweather.com
Personal Weather Stations
Station Observations
K4FB1
Clubhouse Heritage, Lakeland, FL 33812

Clubhouse HeritageLakeland, FL 33812

Lat: 27.969224, Lon: -81.897769

Elevation: 145

Station Type: Davis Vantage Pro2

http://www.ClubhouseWX.com

High Low Average
Temperature 87.8°F31.0°C 71.3°F21.8°C 77.1°F25.1°C
Dew Point 74.6°F23.7°C -34.0°F-36.7°C 5.3°F-14.8°C
Winds 9.0 mph 14.5 kmh 1.0 mph 1.6 kmh 5.0 mph S8.0 kmh S
Wind Gusts 19.0 mph30.6 kmh 2.0 mph3.2 kmh 10.0 mph16.1 kmh
Humidity 67% 0% 21%
Pressure 29.99 in1015.6 mb 29.90 in1012.5 mb -
Precipitation 0.00 in0.0 mm - -
Hour Temp Dew Point Humidity Winds Wind Gusts Pressure Precip Precip Rate Daily Precip Total
12:00 AM 72.4°F22.4°C 12.7°F-10.7°C 10% 4.0 mph SSE6.4 kmh SSE 7.0 mph11.3 kmh 29.94 in1013.9 mb 0.00 in0.0 mm 0.00 in0.0 mm 0.00 in0.0 mm
12:05 AM 72.2°F22.3°C 10.2°F-12.1°C 9% 4.0 mph SSE6.4 kmh SSE 8.0 mph12.9 kmh 29.94 in1013.9 mb 0.00 in0.0 mm 0.00 in0.0 mm 0.00 in0.0 mm
12:10 AM 72.2°F22.3°C 7.5°F-13.6°C 8% 4.0 mph SSE6.4 kmh SSE 8.0 mph12.9 kmh 29.93 in1013.5 mb 0.00 in0.0 mm 0.00 in0.0 mm 0.00 in0.0 mm
12:15 AM 72.1°F22.3°C 1.2°F-17.1°C 6% 4.0 mph SSE6.4 kmh SSE 8.0 mph12.9 kmh 29.94 in1013.9 mb 0.00 in0.0 mm 0.00 in0.0 mm 0.00 in0.0 mm
12:20 AM 72.0°F22.2°C -2.8°F-19.3°C 5% 5.0 mph SSE8.0 kmh SSE 11.0 mph17.7 kmh 29.93 in1013.5 mb 0.00 in0.0 mm 0.00 in0.0 mm 0.00 in0.0 mm
12:25 AM 72.0°F22.2°C -7.4°F-21.9°C 4% 5.0 mph SSE8.0 kmh SSE 11.0 mph17.7 kmh 29.93 in1013.5 mb 0.00 in0.0 mm 0.00 in0.0 mm 0.00 in0.0 mm
12:30 AM 72.0°F22.2°C -13.2°F-25.1°C 3% 5.0 mph SSE8.0 kmh SSE 10.0 mph16.1 kmh 29.93 in1013.5 mb 0.00 in0.0 mm 0.00 in0.0 mm 0.00 in0.0 mm
12:35 AM 72.0°F22.2°C -13.2°F-25.1°C 3% 5.0 mph SSE8.0 kmh SSE 10.0 mph16.1 kmh 29.93 in1013.5 mb 0.00 in0.0 mm 0.00 in0.0 mm 0.00 in0.0 mm
12:40 AM 72.0°F22.2°C -13.2°F-25.1°C 3% 4.0 mph SSE6.4 kmh SSE 10.0 mph16.1 kmh 29.93 in1013.5 mb 0.00 in0.0 mm 0.00 in0.0 mm 0.00 in0.0 mm
12:45 AM 72.0°F22.2°C -21.2°F-29.6°C 2% 5.0 mph S8.0 kmh S 10.0 mph16.1 kmh 29.93 in1013.5 mb 0.00 in0.0 mm 0.00 in0.0 mm 0.00 in0.0 mm
12:50 AM 72.1°F22.3°C -21.1°F-29.5°C 2% 5.0 mph S8.0 kmh S 10.0 mph16.1 kmh 29.93 in1013.5 mb 0.00 in0.0 mm 0.00 in0.0 mm 0.00 in0.0 mm
12:55 AM 72.1°F22.3°C -13.2°F-25.1°C 3% 6.0 mph SSE9.7 kmh SSE 9.0 mph14.5 kmh 29.93 in1013.5 mb 0.00 in0.0 mm 0.00 in0.0 mm 0.00 in0.0 mm
01:00 AM 72.1°F22.3°C -13.2°F-25.1°C 3% 5.0 mph SSE8.0 kmh SSE 9.0 mph14.5 kmh 29.93 in1013.5 mb 0.00 in0.0 mm 0.00 in0.0 mm 0.00 in0.0 mm
01:05 AM 72.1°F22.3°C -13.2°F-25.1°C 3% 5.0 mph S8.0 kmh S 10.0 mph16.1 kmh 29.93 in1013.5 mb 0.00 in0.0 mm 0.00 in0.0 mm 0.00 in0.0 mm
01:10 AM 72.1°F22.3°C -33.9°F-36.6°C 1% 6.0 mph SSE9.7 kmh SSE 10.0 mph16.1 kmh 29.93 in1013.5 mb 0.00 in0.0 mm 0.00 in0.0 mm 0.00 in0.0 mm
01:15 AM 72.0°F22.2°C -34.0°F-36.7°C 1% 5.0 mph SSE8.0 kmh SSE 10.0 mph16.1 kmh 29.93 in1013.5 mb 0.00 in0.0 mm 0.00 in0.0 mm 0.00 in0.0 mm
01:20 AM 72.0°F22.2°C -34.0°F-36.7°C 0% 5.0 mph SSE8.0 kmh SSE 10.0 mph16.1 kmh 29.93 in1013.5 mb 0.00 in0.0 mm 0.00 in0.0 mm 0.00 in0.0 mm
01:25 AM 71.9°F22.2°C -34.0°F-36.7°C 0% 5.0 mph SSE8.0 kmh SSE 10.0 mph16.1 kmh 29.93 in1013.5 mb 0.00 in0.0 mm 0.00 in0.0 mm 0.00 in0.0 mm
01:30 AM 71.8°F22.1°C -34.0°F-36.7°C 0% 5.0 mph SSE8.0 kmh SSE 10.0 mph16.1 kmh 29.93 in1013.5 mb 0.00 in0.0 mm 0.00 in0.0 mm 0.00 in0.0 mm
01:35 AM 71.7°F22.1°C -34.0°F-36.7°C 0% 5.0 mph SSE8.0 kmh SSE 10.0 mph16.1 kmh 29.93 in1013.5 mb 0.00 in0.0 mm 0.00 in0.0 mm 0.00 in0.0 mm
01:40 AM 71.7°F22.1°C -34.0°F-36.7°C 0% 4.0 mph SSE6.4 kmh SSE 7.0 mph11.3 kmh 29.93 in1013.5 mb 0.00 in0.0 mm 0.00 in0.0 mm 0.00 in0.0 mm
01:45 AM 71.7°F22.1°C -34.0°F-36.7°C 0% 4.0 mph SSE6.4 kmh SSE 9.0 mph14.5 kmh 29.92 in1013.2 mb 0.00 in0.0 mm 0.00 in0.0 mm 0.00 in0.0 mm
01:50 AM 71.7°F22.1°C -34.0°F-36.7°C 0% 5.0 mph S8.0 kmh S 9.0 mph14.5 kmh 29.93 in1013.5 mb 0.00 in0.0 mm 0.00 in0.0 mm 0.00 in0.0 mm
01:55 AM 71.7°F22.1°C -34.0°F-36.7°C 0% 5.0 mph S8.0 kmh S 9.0 mph14.5 kmh 29.92 in1013.2 mb 0.00 in0.0 mm 0.00 in0.0 mm 0.00 in0.0 mm
02:00 AM 71.7°F22.1°C -34.0°F-36.7°C 0% 5.0 mph SSE8.0 kmh SSE 9.0 mph14.5 kmh 29.92 in1013.2 mb 0.00 in0.0 mm 0.00 in0.0 mm 0.00 in0.0 mm
02:05 AM 71.6°F22.0°C -34.0°F-36.7°C 0% 4.0 mph SSE6.4 kmh SSE 9.0 mph14.5 kmh 29.92 in1013.2 mb 0.00 in0.0 mm 0.00 in0.0 mm 0.00 in0.0 mm
02:10 AM 71.6°F22.0°C -34.0°F-36.7°C 0% 4.0 mph SSE6.4 kmh SSE 9.0 mph14.5 kmh 29.92 in1013.2 mb 0.00 in0.0 mm 0.00 in0.0 mm 0.00 in0.0 mm
02:15 AM 71.6°F22.0°C -34.0°F-36.7°C 0% 5.0 mph SSE8.0 kmh SSE 8.0 mph12.9 kmh 29.92 in1013.2 mb 0.00 in0.0 mm 0.00 in0.0 mm 0.00 in0.0 mm
02:20 AM 71.5°F21.9°C -34.0°F-36.7°C 0% 5.0 mph SSE8.0 kmh SSE 9.0 mph14.5 kmh 29.92 in1013.2 mb 0.00 in0.0 mm 0.00 in0.0 mm 0.00 in0.0 mm
02:25 AM 71.5°F21.9°C -34.0°F-36.7°C 0% 5.0 mph SSE8.0 kmh SSE 10.0 mph16.1 kmh 29.92 in1013.2 mb 0.00 in0.0 mm 0.00 in0.0 mm 0.00 in0.0 mm
02:30 AM 71.5°F21.9°C -34.0°F-36.7°C 0% 5.0 mph SSE8.0 kmh SSE 10.0 mph16.1 kmh 29.92 in1013.2 mb 0.00 in0.0 mm 0.00 in0.0 mm 0.00 in0.0 mm
02:35 AM 71.5°F21.9°C -34.0°F-36.7°C 0% 5.0 mph SSE8.0 kmh SSE 10.0 mph16.1 kmh 29.92 in1013.2 mb 0.00 in0.0 mm 0.00 in0.0 mm 0.00 in0.0 mm
02:40 AM 71.5°F21.9°C -34.0°F-36.7°C 0% 5.0 mph SSE8.0 kmh SSE 10.0 mph16.1 kmh 29.91 in1012.9 mb 0.00 in0.0 mm 0.00 in0.0 mm 0.00 in0.0 mm
02:45 AM 71.5°F21.9°C -34.0°F-36.7°C 0% 5.0 mph SSE8.0 kmh SSE 10.0 mph16.1 kmh 29.91 in1012.9 mb 0.00 in0.0 mm 0.00 in0.0 mm 0.00 in0.0 mm
02:50 AM 71.5°F21.9°C -34.0°F-36.7°C 0% 5.0 mph SSE8.0 kmh SSE 11.0 mph17.7 kmh 29.91 in1012.9 mb 0.00 in0.0 mm 0.00 in0.0 mm 0.00 in0.0 mm
02:55 AM 71.5°F21.9°C -34.0°F-36.7°C 0% 5.0 mph SSE8.0 kmh SSE 11.0 mph17.7 kmh 29.91 in1012.9 mb 0.00 in0.0 mm 0.00 in0.0 mm 0.00 in0.0 mm
03:00 AM 71.5°F21.9°C -34.0°F-36.7°C 0% 5.0 mph SSE8.0 kmh SSE 11.0 mph17.7 kmh 29.91 in1012.9 mb 0.00 in0.0 mm 0.00 in0.0 mm 0.00 in0.0 mm
03:05 AM 71.5°F21.9°C -34.0°F-36.7°C 0% 5.0 mph SSE8.0 kmh SSE 9.0 mph14.5 kmh 29.92 in1013.2 mb 0.00 in0.0 mm 0.00 in0.0 mm 0.00 in0.0 mm
03:10 AM 71.5°F21.9°C -34.0°F-36.7°C 0% 4.0 mph SSE6.4 kmh SSE 8.0 mph12.9 kmh 29.92 in1013.2 mb 0.00 in0.0 mm 0.00 in0.0 mm 0.00 in0.0 mm
03:15 AM 71.5°F21.9°C -34.0°F-36.7°C 0% 4.0 mph SSE6.4 kmh SSE 8.0 mph12.9 kmh 29.92 in1013.2 mb 0.00 in0.0 mm 0.00 in0.0 mm 0.00 in0.0 mm
03:20 AM 71.5°F21.9°C -34.0°F-36.7°C 0% 5.0 mph SSE8.0 kmh SSE 9.0 mph14.5 kmh 29.92 in1013.2 mb 0.00 in0.0 mm 0.00 in0.0 mm 0.00 in0.0 mm
03:25 AM 71.5°F21.9°C -34.0°F-36.7°C 0% 5.0 mph SSE8.0 kmh SSE 9.0 mph14.5 kmh 29.91 in1012.9 mb 0.00 in0.0 mm 0.00 in0.0 mm 0.00 in0.0 mm
03:30 AM 71.5°F21.9°C -34.0°F-36.7°C 0% 5.0 mph SSE8.0 kmh SSE 10.0 mph16.1 kmh 29.91 in1012.9 mb 0.00 in0.0 mm 0.00 in0.0 mm 0.00 in0.0 mm
03:35 AM 71.6°F22.0°C -34.0°F-36.7°C 0% 5.0 mph S8.0 kmh S 10.0 mph16.1 kmh 29.92 in1013.2 mb 0.00 in0.0 mm 0.00 in0.0 mm 0.00 in0.0 mm
03:40 AM 71.6°F22.0°C -34.0°F-36.7°C 0% 5.0 mph S8.0 kmh S 9.0 mph14.5 kmh 29.92 in1013.2 mb 0.00 in0.0 mm 0.00 in0.0 mm 0.00 in0.0 mm
03:45 AM 71.6°F22.0°C -34.0°F-36.7°C 0% 5.0 mph S8.0 kmh S 9.0 mph14.5 kmh 29.92 in1013.2 mb 0.00 in0.0 mm 0.00 in0.0 mm 0.00 in0.0 mm
03:50 AM 71.7°F22.1°C -34.0°F-36.7°C 0% 6.0 mph S9.7 kmh S 11.0 mph17.7 kmh 29.91 in1012.9 mb 0.00 in0.0 mm 0.00 in0.0 mm 0.00 in0.0 mm
03:55 AM 71.7°F22.1°C -34.0°F-36.7°C 0% 6.0 mph S9.7 kmh S 11.0 mph17.7 kmh 29.92 in1013.2 mb 0.00 in0.0 mm 0.00 in0.0 mm 0.00 in0.0 mm
04:00 AM 71.7°F22.1°C -34.0°F-36.7°C 0% 6.0 mph SSE9.7 kmh SSE 10.0 mph16.1 kmh 29.92 in1013.2 mb 0.00 in0.0 mm 0.00 in0.0 mm 0.00 in0.0 mm
04:05 AM 71.7°F22.1°C -34.0°F-36.7°C 0% 6.0 mph S9.7 kmh S 12.0 mph19.3 kmh 29.91 in1012.9 mb 0.00 in0.0 mm 0.00 in0.0 mm 0.00 in0.0 mm
04:10 AM 71.7°F22.1°C -34.0°F-36.7°C 0% 6.0 mph S9.7 kmh S 12.0 mph19.3 kmh 29.91 in1012.9 mb 0.00 in0.0 mm 0.00 in0.0 mm 0.00 in0.0 mm
04:15 AM 71.7°F22.1°C -34.0°F-36.7°C 0% 6.0 mph SSE9.7 kmh SSE 12.0 mph19.3 kmh 29.91 in1012.9 mb 0.00 in0.0 mm 0.00 in0.0 mm 0.00 in0.0 mm
04:20 AM 71.6°F22.0°C -34.0°F-36.7°C 0% 6.0 mph SSE9.7 kmh SSE 11.0 mph17.7 kmh 29.91 in1012.9 mb 0.00 in0.0 mm 0.00 in0.0 mm 0.00 in0.0 mm
04:25 AM 71.6°F22.0°C -34.0°F-36.7°C 0% 6.0 mph S9.7 kmh S 11.0 mph17.7 kmh 29.92 in1013.2 mb 0.00 in0.0 mm 0.00 in0.0 mm 0.00 in0.0 mm
04:30 AM 71.5°F21.9°C -34.0°F-36.7°C 0% 6.0 mph S9.7 kmh S 11.0 mph17.7 kmh 29.91 in1012.9 mb 0.00 in0.0 mm 0.00 in0.0 mm 0.00 in0.0 mm
04:35 AM 71.5°F21.9°C -34.0°F-36.7°C 0% 6.0 mph S9.7 kmh S 11.0 mph17.7 kmh 29.91 in1012.9 mb 0.00 in0.0 mm 0.00 in0.0 mm 0.00 in0.0 mm
04:40 AM 71.4°F21.9°C -34.0°F-36.7°C 0% 5.0 mph S8.0 kmh S 9.0 mph14.5 kmh 29.91 in1012.9 mb 0.00 in0.0 mm 0.00 in0.0 mm 0.00 in0.0 mm
04:45 AM 71.4°F21.9°C -34.0°F-36.7°C 0% 5.0 mph S8.0 kmh S 8.0 mph12.9 kmh 29.92 in1013.2 mb 0.00 in0.0 mm 0.00 in0.0 mm 0.00 in0.0 mm
04:50 AM 71.4°F21.9°C -34.0°F-36.7°C 0% 5.0 mph S8.0 kmh S 9.0 mph14.5 kmh 29.92 in1013.2 mb 0.00 in0.0 mm 0.00 in0.0 mm 0.00 in0.0 mm
04:55 AM 71.5°F21.9°C -34.0°F-36.7°C 0% 5.0 mph S8.0 kmh S 10.0 mph16.1 kmh 29.92 in1013.2 mb 0.00 in0.0 mm 0.00 in0.0 mm 0.00 in0.0 mm
05:00 AM 71.5°F21.9°C -34.0°F-36.7°C 0% 5.0 mph S8.0 kmh S 10.0 mph16.1 kmh 29.92 in1013.2 mb 0.00 in0.0 mm 0.00 in0.0 mm 0.00 in0.0 mm
05:05 AM 71.6°F22.0°C -34.0°F-36.7°C 0% 5.0 mph SSE8.0 kmh SSE 8.0 mph12.9 kmh 29.92 in1013.2 mb 0.00 in0.0 mm 0.00 in0.0 mm 0.00 in0.0 mm
05:10 AM 71.6°F22.0°C -34.0°F-36.7°C 0% 5.0 mph SSE8.0 kmh SSE 8.0 mph12.9 kmh 29.92 in1013.2 mb 0.00 in0.0 mm 0.00 in0.0 mm 0.00 in0.0 mm
05:15 AM 71.6°F22.0°C -34.0°F-36.7°C 0% 5.0 mph SSE8.0 kmh SSE 13.0 mph20.9 kmh 29.92 in1013.2 mb 0.00 in0.0 mm 0.00 in0.0 mm 0.00 in0.0 mm
05:20 AM 71.6°F22.0°C -34.0°F-36.7°C 0% 6.0 mph SSE9.7 kmh SSE 13.0 mph20.9 kmh 29.91 in1012.9 mb 0.00 in0.0 mm 0.00 in0.0 mm 0.00 in0.0 mm
05:25 AM 71.6°F22.0°C -34.0°F-36.7°C 0% 5.0 mph SSE8.0 kmh SSE 11.0 mph17.7 kmh 29.91 in1012.9 mb 0.00 in0.0 mm 0.00 in0.0 mm 0.00 in0.0 mm
05:30 AM 71.6°F22.0°C -34.0°F-36.7°C 0% 6.0 mph S9.7 kmh S 14.0 mph22.5 kmh 29.91 in1012.9 mb 0.00 in0.0 mm 0.00 in0.0 mm 0.00 in0.0 mm
05:35 AM 71.6°F22.0°C -34.0°F-36.7°C 0% 6.0 mph SSE9.7 kmh SSE 14.0 mph22.5 kmh 29.92 in1013.2 mb 0.00 in0.0 mm 0.00 in0.0 mm 0.00 in0.0 mm
05:40 AM 71.5°F21.9°C -34.0°F-36.7°C 0% 5.0 mph SSE8.0 kmh SSE 10.0 mph16.1 kmh 29.92 in1013.2 mb 0.00 in0.0 mm 0.00 in0.0 mm 0.00 in0.0 mm
05:45 AM 71.5°F21.9°C -34.0°F-36.7°C 0% 5.0 mph SSE8.0 kmh SSE 10.0 mph16.1 kmh 29.91 in1012.9 mb 0.00 in0.0 mm 0.00 in0.0 mm 0.00 in0.0 mm
05:50 AM 71.5°F21.9°C -34.0°F-36.7°C 0% 6.0 mph SSE9.7 kmh SSE 10.0 mph16.1 kmh 29.91 in1012.9 mb 0.00 in0.0 mm 0.00 in0.0 mm 0.00 in0.0 mm
05:55 AM 71.4°F21.9°C -34.0°F-36.7°C 0% 5.0 mph SSE8.0 kmh SSE 10.0 mph16.1 kmh 29.92 in1013.2 mb 0.00 in0.0 mm 0.00 in0.0 mm 0.00 in0.0 mm
06:00 AM 71.4°F21.9°C -34.0°F-36.7°C 0% 5.0 mph SSE8.0 kmh SSE 8.0 mph12.9 kmh 29.91 in1012.9 mb 0.00 in0.0 mm 0.00 in0.0 mm 0.00 in0.0 mm
06:05 AM 71.3°F21.8°C -34.0°F-36.7°C 0% 5.0 mph SSE8.0 kmh SSE 9.0 mph14.5 kmh 29.92 in1013.2 mb 0.00 in0.0 mm 0.00 in0.0 mm 0.00 in0.0 mm
06:10 AM 71.3°F21.8°C -34.0°F-36.7°C 0% 5.0 mph SSE8.0 kmh SSE 10.0 mph16.1 kmh 29.92 in1013.2 mb 0.00 in0.0 mm 0.00 in0.0 mm 0.00 in0.0 mm
06:15 AM 71.3°F21.8°C -34.0°F-36.7°C 0% 6.0 mph SSE9.7 kmh SSE 10.0 mph16.1 kmh 29.92 in1013.2 mb 0.00 in0.0 mm 0.00 in0.0 mm 0.00 in0.0 mm
06:20 AM 71.3°F21.8°C -34.0°F-36.7°C 0% 5.0 mph SSE8.0 kmh SSE 9.0 mph14.5 kmh 29.92 in1013.2 mb 0.00 in0.0 mm 0.00 in0.0 mm 0.00 in0.0 mm
06:25 AM 71.3°F21.8°C -34.0°F-36.7°C 0% 5.0 mph SSE8.0 kmh SSE 9.0 mph14.5 kmh 29.92 in1013.2 mb 0.00 in0.0 mm 0.00 in0.0 mm 0.00 in0.0 mm
06:30 AM 71.3°F21.8°C -34.0°F-36.7°C 0% 5.0 mph S8.0 kmh S 9.0 mph14.5 kmh 29.92 in1013.2 mb 0.00 in0.0 mm 0.00 in0.0 mm 0.00 in0.0 mm
06:35 AM 71.3°F21.8°C -34.0°F-36.7°C 0% 5.0 mph S8.0 kmh S 9.0 mph14.5 kmh 29.92 in1013.2 mb 0.00 in0.0 mm 0.00 in0.0 mm 0.00 in0.0 mm
06:40 AM 71.4°F21.9°C -34.0°F-36.7°C 0% 5.0 mph S8.0 kmh S 9.0 mph14.5 kmh 29.93 in1013.5 mb 0.00 in0.0 mm 0.00 in0.0 mm 0.00 in0.0 mm
06:45 AM 71.5°F21.9°C -34.0°F-36.7°C 0% 4.0 mph SSE6.4 kmh SSE 9.0 mph14.5 kmh 29.93 in1013.5 mb 0.00 in0.0 mm 0.00 in0.0 mm 0.00 in0.0 mm
06:50 AM 71.6°F22.0°C -34.0°F-36.7°C 0% 5.0 mph S8.0 kmh S 9.0 mph14.5 kmh 29.93 in1013.5 mb 0.00 in0.0 mm 0.00 in0.0 mm 0.00 in0.0 mm
06:55 AM 71.7°F22.1°C -34.0°F-36.7°C 0% 5.0 mph S8.0 kmh S 14.0 mph22.5 kmh 29.93 in1013.5 mb 0.00 in0.0 mm 0.00 in0.0 mm 0.00 in0.0 mm
07:00 AM 71.8°F22.1°C -34.0°F-36.7°C 0% 5.0 mph S8.0 kmh S 14.0 mph22.5 kmh 29.93 in1013.5 mb 0.00 in0.0 mm 0.00 in0.0 mm 0.00 in0.0 mm
07:05 AM 71.9°F22.2°C -34.0°F-36.7°C 0% 5.0 mph S8.0 kmh S 10.0 mph16.1 kmh 29.93 in1013.5 mb 0.00 in0.0 mm 0.00 in0.0 mm 0.00 in0.0 mm
07:10 AM 72.0°F22.2°C -34.0°F-36.7°C 0% 5.0 mph S8.0 kmh S 10.0 mph16.1 kmh 29.93 in1013.5 mb 0.00 in0.0 mm 0.00 in0.0 mm 0.00 in0.0 mm
07:15 AM 72.1°F22.3°C -34.0°F-36.7°C 0% 5.0 mph S8.0 kmh S 9.0 mph14.5 kmh 29.93 in1013.5 mb 0.00 in0.0 mm 0.00 in0.0 mm 0.00 in0.0 mm
07:20 AM 72.2°F22.3°C -34.0°F-36.7°C 0% 5.0 mph S8.0 kmh S 9.0 mph14.5 kmh 29.94 in1013.9 mb 0.00 in0.0 mm 0.00 in0.0 mm 0.00 in0.0 mm
07:25 AM 72.2°F22.3°C -34.0°F-36.7°C 0% 5.0 mph S8.0 kmh S 9.0 mph14.5 kmh 29.94 in1013.9 mb 0.00 in0.0 mm 0.00 in0.0 mm 0.00 in0.0 mm
07:30 AM 72.3°F22.4°C -34.0°F-36.7°C 0% 4.0 mph S6.4 kmh S 9.0 mph14.5 kmh 29.94 in1013.9 mb 0.00 in0.0 mm 0.00 in0.0 mm 0.00 in0.0 mm
07:35 AM 72.4°F22.4°C -34.0°F-36.7°C 0% 4.0 mph S6.4 kmh S 7.0 mph11.3 kmh 29.94 in1013.9 mb 0.00 in0.0 mm 0.00 in0.0 mm 0.00 in0.0 mm
07:40 AM 72.4°F22.4°C -34.0°F-36.7°C 0% 4.0 mph S6.4 kmh S 8.0 mph12.9 kmh 29.95 in1014.2 mb 0.00 in0.0 mm 0.00 in0.0 mm 0.00 in0.0 mm
07:45 AM 72.5°F22.5°C -34.0°F-36.7°C 0% 4.0 mph S6.4 kmh S 9.0 mph14.5 kmh 29.95 in1014.2 mb 0.00 in0.0 mm 0.00 in0.0 mm 0.00 in0.0 mm
07:50 AM 72.6°F22.6°C -34.0°F-36.7°C 0% 4.0 mph S6.4 kmh S 9.0 mph14.5 kmh 29.94 in1013.9 mb 0.00 in0.0 mm 0.00 in0.0 mm 0.00 in0.0 mm
07:55 AM 72.6°F22.6°C -34.0°F-36.7°C 0% 4.0 mph S6.4 kmh S 10.0 mph16.1 kmh 29.95 in1014.2 mb 0.00 in0.0 mm 0.00 in0.0 mm 0.00 in0.0 mm
08:00 AM 72.7°F22.6°C -34.0°F-36.7°C 0% 5.0 mph S8.0 kmh S 10.0 mph16.1 kmh 29.95 in1014.2 mb 0.00 in0.0 mm 0.00 in0.0 mm 0.00 in0.0 mm
08:05 AM 72.7°F22.6°C -34.0°F-36.7°C 0% 5.0 mph S8.0 kmh S 10.0 mph16.1 kmh 29.95 in1014.2 mb 0.00 in0.0 mm 0.00 in0.0 mm 0.00 in0.0 mm
08:10 AM 72.8°F22.7°C -34.0°F-36.7°C 0% 4.0 mph S6.4 kmh S 8.0 mph12.9 kmh 29.95 in1014.2 mb 0.00 in0.0 mm 0.00 in0.0 mm 0.00 in0.0 mm
08:15 AM 72.9°F22.7°C -34.0°F-36.7°C 0% 4.0 mph S6.4 kmh S 9.0 mph14.5 kmh 29.95 in1014.2 mb 0.00 in0.0 mm 0.00 in0.0 mm 0.00 in0.0 mm
08:20 AM 73.0°F22.8°C -34.0°F-36.7°C 0% 5.0 mph S8.0 kmh S 10.0 mph16.1 kmh 29.95 in1014.2 mb 0.00 in0.0 mm 0.00 in0.0 mm 0.00 in0.0 mm
08:25 AM 73.1°F22.8°C -34.0°F-36.7°C 0% 4.0 mph S6.4 kmh S 10.0 mph16.1 kmh 29.95 in1014.2 mb 0.00 in0.0 mm 0.00 in0.0 mm 0.00 in0.0 mm
08:30 AM 73.4°F23.0°C -34.0°F-36.7°C 0% 5.0 mph S8.0 kmh S 10.0 mph16.1 kmh 29.96 in1014.6 mb 0.00 in0.0 mm 0.00 in0.0 mm 0.00 in0.0 mm
08:35 AM 73.6°F23.1°C -34.0°F-36.7°C 0% 5.0 mph S8.0 kmh S 10.0 mph16.1 kmh 29.96 in1014.6 mb 0.00 in0.0 mm 0.00 in0.0 mm 0.00 in0.0 mm
08:40 AM 73.9°F23.3°C -34.0°F-36.7°C 0% 4.0 mph S6.4 kmh S 10.0 mph16.1 kmh 29.96 in1014.6 mb 0.00 in0.0 mm 0.00 in0.0 mm 0.00 in0.0 mm
08:45 AM 74.2°F23.4°C -34.0°F-36.7°C 0% 5.0 mph S8.0 kmh S 7.0 mph11.3 kmh 29.97 in1014.9 mb 0.00 in0.0 mm 0.00 in0.0 mm 0.00 in0.0 mm
08:50 AM 74.5°F23.6°C -34.0°F-36.7°C 0% 4.0 mph S6.4 kmh S 8.0 mph12.9 kmh 29.97 in1014.9 mb 0.00 in0.0 mm 0.00 in0.0 mm 0.00 in0.0 mm
08:55 AM 74.8°F23.8°C -34.0°F-36.7°C 0% 4.0 mph S6.4 kmh S 10.0 mph16.1 kmh 29.97 in1014.9 mb 0.00 in0.0 mm 0.00 in0.0 mm 0.00 in0.0 mm
09:00 AM 75.0°F23.9°C -34.0°F-36.7°C 0% 6.0 mph S9.7 kmh S 12.0 mph19.3 kmh 29.97 in1014.9 mb 0.00 in0.0 mm 0.00 in0.0 mm 0.00 in0.0 mm
09:05 AM 75.2°F24.0°C -34.0°F-36.7°C 0% 6.0 mph S9.7 kmh S 13.0 mph20.9 kmh 29.97 in1014.9 mb 0.00 in0.0 mm 0.00 in0.0 mm 0.00 in0.0 mm
09:10 AM 75.6°F24.2°C -34.0°F-36.7°C 0% 6.0 mph S9.7 kmh S 13.0 mph20.9 kmh 29.97 in1014.9 mb 0.00 in0.0 mm 0.00 in0.0 mm 0.00 in0.0 mm
09:15 AM 76.2°F24.6°C -34.0°F-36.7°C 0% 6.0 mph S9.7 kmh S 12.0 mph19.3 kmh 29.97 in1014.9 mb 0.00 in0.0 mm 0.00 in0.0 mm 0.00 in0.0 mm
09:20 AM 76.8°F24.9°C -34.0°F-36.7°C 0% 6.0 mph S9.7 kmh S 12.0 mph19.3 kmh 29.97 in1014.9 mb 0.00 in0.0 mm 0.00 in0.0 mm 0.00 in0.0 mm
09:25 AM 77.4°F25.2°C -34.0°F-36.7°C 0% 6.0 mph S9.7 kmh S 10.0 mph16.1 kmh 29.97 in1014.9 mb 0.00 in0.0 mm 0.00 in0.0 mm 0.00 in0.0 mm
09:30 AM 78.0°F25.6°C -34.0°F-36.7°C 0% 5.0 mph S8.0 kmh S 10.0 mph16.1 kmh 29.98 in1015.2 mb 0.00 in0.0 mm 0.00 in0.0 mm 0.00 in0.0 mm
09:35 AM 78.5°F25.8°C -34.0°F-36.7°C 0% 5.0 mph S8.0 kmh S 15.0 mph24.1 kmh 29.98 in1015.2 mb 0.00 in0.0 mm 0.00 in0.0 mm 0.00 in0.0 mm
09:40 AM 78.9°F26.1°C -34.0°F-36.7°C 0% 6.0 mph S9.7 kmh S 15.0 mph24.1 kmh 29.98 in1015.2 mb 0.00 in0.0 mm 0.00 in0.0 mm 0.00 in0.0 mm
09:45 AM 79.0°F26.1°C -8.5°F-22.5°C 3% 6.0 mph S9.7 kmh S 13.0 mph20.9 kmh 29.98 in1015.2 mb 0.00 in0.0 mm 0.00 in0.0 mm 0.00 in0.0 mm
09:50 AM 79.1°F26.2°C -2.5°F-19.2°C 4% 7.0 mph S11.3 kmh S 14.0 mph22.5 kmh 29.98 in1015.2 mb 0.00 in0.0 mm 0.00 in0.0 mm 0.00 in0.0 mm
09:55 AM 79.6°F26.4°C 15.8°F-9.0°C 9% 7.0 mph S11.3 kmh S 14.0 mph22.5 kmh 29.98 in1015.2 mb 0.00 in0.0 mm 0.00 in0.0 mm 0.00 in0.0 mm
10:00 AM 80.0°F26.7°C 20.7°F-6.3°C 11% 7.0 mph S11.3 kmh S 14.0 mph22.5 kmh 29.99 in1015.6 mb 0.00 in0.0 mm 0.00 in0.0 mm 0.00 in0.0 mm
10:05 AM 80.1°F26.7°C 24.8°F-4.0°C 13% 7.0 mph S11.3 kmh S 14.0 mph22.5 kmh 29.98 in1015.2 mb 0.00 in0.0 mm 0.00 in0.0 mm 0.00 in0.0 mm
10:10 AM 80.4°F26.9°C 31.6°F-0.2°C 17% 6.0 mph S9.7 kmh S 13.0 mph20.9 kmh 29.98 in1015.2 mb 0.00 in0.0 mm 0.00 in0.0 mm 0.00 in0.0 mm
10:15 AM 80.8°F27.1°C 39.5°F4.2°C 23% 7.0 mph S11.3 kmh S 14.0 mph22.5 kmh 29.98 in1015.2 mb 0.00 in0.0 mm 0.00 in0.0 mm 0.00 in0.0 mm
10:20 AM 80.9°F27.2°C 39.6°F4.2°C 23% 9.0 mph S14.5 kmh S 15.0 mph24.1 kmh 29.98 in1015.2 mb 0.00 in0.0 mm 0.00 in0.0 mm 0.00 in0.0 mm
10:25 AM 81.3°F27.4°C 42.1°F5.6°C 25% 8.0 mph S12.9 kmh S 15.0 mph24.1 kmh 29.98 in1015.2 mb 0.00 in0.0 mm 0.00 in0.0 mm 0.00 in0.0 mm
10:30 AM 81.7°F27.6°C 41.4°F5.2°C 24% 7.0 mph S11.3 kmh S 15.0 mph24.1 kmh 29.98 in1015.2 mb 0.00 in0.0 mm 0.00 in0.0 mm 0.00 in0.0 mm
10:35 AM 82.6°F28.1°C 50.6°F10.3°C 33% 7.0 mph S11.3 kmh S 16.0 mph25.7 kmh 29.98 in1015.2 mb 0.00 in0.0 mm 0.00 in0.0 mm 0.00 in0.0 mm
10:40 AM 83.2°F28.4°C 57.1°F13.9°C 41% 8.0 mph S12.9 kmh S 16.0 mph25.7 kmh 29.97 in1014.9 mb 0.00 in0.0 mm 0.00 in0.0 mm 0.00 in0.0 mm
10:45 AM 83.5°F28.6°C 58.0°F14.4°C 42% 8.0 mph S12.9 kmh S 15.0 mph24.1 kmh 29.97 in1014.9 mb 0.00 in0.0 mm 0.00 in0.0 mm 0.00 in0.0 mm
10:50 AM 83.6°F28.7°C 58.7°F14.8°C 43% 8.0 mph S12.9 kmh S 18.0 mph29.0 kmh 29.97 in1014.9 mb 0.00 in0.0 mm 0.00 in0.0 mm 0.00 in0.0 mm
10:55 AM 83.6°F28.7°C 62.4°F16.9°C 49% 8.0 mph S12.9 kmh S 18.0 mph29.0 kmh 29.97 in1014.9 mb 0.00 in0.0 mm 0.00 in0.0 mm 0.00 in0.0 mm
11:00 AM 83.4°F28.6°C 59.2°F15.1°C 44% 8.0 mph S12.9 kmh S 15.0 mph24.1 kmh 29.97 in1014.9 mb 0.00 in0.0 mm 0.00 in0.0 mm 0.00 in0.0 mm
11:05 AM 83.2°F28.4°C 60.3°F15.7°C 46% 6.0 mph S9.7 kmh S 16.0 mph25.7 kmh 29.97 in1014.9 mb 0.00 in0.0 mm 0.00 in0.0 mm 0.00 in0.0 mm
11:10 AM 82.9°F28.3°C 64.0°F17.8°C 53% 7.0 mph S11.3 kmh S 16.0 mph25.7 kmh 29.97 in1014.9 mb 0.00 in0.0 mm 0.00 in0.0 mm 0.00 in0.0 mm
11:15 AM 83.2°F28.4°C 62.6°F17.0°C 50% 8.0 mph S12.9 kmh S 15.0 mph24.1 kmh 29.96 in1014.6 mb 0.00 in0.0 mm 0.00 in0.0 mm 0.00 in0.0 mm
11:20 AM 83.6°F28.7°C 65.7°F18.7°C 55% 8.0 mph S12.9 kmh S 16.0 mph25.7 kmh 29.96 in1014.6 mb 0.00 in0.0 mm 0.00 in0.0 mm 0.00 in0.0 mm
11:25 AM 83.7°F28.7°C 66.3°F19.1°C 56% 9.0 mph S14.5 kmh S 17.0 mph27.4 kmh 29.96 in1014.6 mb 0.00 in0.0 mm 0.00 in0.0 mm 0.00 in0.0 mm
11:30 AM 83.7°F28.7°C 66.8°F19.3°C 57% 8.0 mph S12.9 kmh S 17.0 mph27.4 kmh 29.96 in1014.6 mb 0.00 in0.0 mm 0.00 in0.0 mm 0.00 in0.0 mm
11:35 AM 83.8°F28.8°C 65.9°F18.8°C 55% 7.0 mph S11.3 kmh S 15.0 mph24.1 kmh 29.96 in1014.6 mb 0.00 in0.0 mm 0.00 in0.0 mm 0.00 in0.0 mm
11:40 AM 84.3°F29.1°C 65.8°F18.8°C 54% 6.0 mph S9.7 kmh S 13.0 mph20.9 kmh 29.96 in1014.6 mb 0.00 in0.0 mm 0.00 in0.0 mm 0.00 in0.0 mm
11:45 AM 85.0°F29.4°C 69.6°F20.9°C 60% 5.0 mph S8.0 kmh S 10.0 mph16.1 kmh 29.96 in1014.6 mb 0.00 in0.0 mm 0.00 in0.0 mm 0.00 in0.0 mm
11:50 AM 85.2°F29.6°C 71.2°F21.8°C 63% 7.0 mph S11.3 kmh S 15.0 mph24.1 kmh 29.96 in1014.6 mb 0.00 in0.0 mm 0.00 in0.0 mm 0.00 in0.0 mm
11:55 AM 85.4°F29.7°C 71.8°F22.1°C 64% 9.0 mph S14.5 kmh S 18.0 mph29.0 kmh 29.95 in1014.2 mb 0.00 in0.0 mm 0.00 in0.0 mm 0.00 in0.0 mm
12:00 PM 85.6°F29.8°C 72.5°F22.5°C 65% 9.0 mph S14.5 kmh S 19.0 mph30.6 kmh 29.95 in1014.2 mb 0.00 in0.0 mm 0.00 in0.0 mm 0.00 in0.0 mm
12:05 PM 86.1°F30.1°C 73.0°F22.8°C 65% 9.0 mph S14.5 kmh S 19.0 mph30.6 kmh 29.95 in1014.2 mb 0.00 in0.0 mm 0.00 in0.0 mm 0.00 in0.0 mm
12:10 PM 86.5°F30.3°C 73.3°F22.9°C 65% 7.0 mph S11.3 kmh S 18.0 mph29.0 kmh 29.95 in1014.2 mb 0.00 in0.0 mm 0.00 in0.0 mm 0.00 in0.0 mm
12:15 PM 86.6°F30.3°C 73.4°F23.0°C 65% 8.0 mph S12.9 kmh S 17.0 mph27.4 kmh 29.95 in1014.2 mb 0.00 in0.0 mm 0.00 in0.0 mm 0.00 in0.0 mm
12:20 PM 86.9°F30.5°C 73.7°F23.2°C 65% 8.0 mph S12.9 kmh S 17.0 mph27.4 kmh 29.94 in1013.9 mb 0.00 in0.0 mm 0.00 in0.0 mm 0.00 in0.0 mm
12:25 PM 86.8°F30.4°C 73.2°F22.9°C 64% 8.0 mph S12.9 kmh S 17.0 mph27.4 kmh 29.94 in1013.9 mb 0.00 in0.0 mm 0.00 in0.0 mm 0.00 in0.0 mm
12:30 PM 86.1°F30.1°C 73.0°F22.8°C 65% 8.0 mph SSW12.9 kmh SSW 17.0 mph27.4 kmh 29.94 in1013.9 mb 0.00 in0.0 mm 0.00 in0.0 mm 0.00 in0.0 mm
12:35 PM 85.9°F29.9°C 72.8°F22.7°C 65% 7.0 mph SSW11.3 kmh SSW 17.0 mph27.4 kmh 29.94 in1013.9 mb 0.00 in0.0 mm 0.00 in0.0 mm 0.00 in0.0 mm
12:40 PM 86.4°F30.2°C 73.2°F22.9°C 65% 6.0 mph SSW9.7 kmh SSW 14.0 mph22.5 kmh 29.93 in1013.5 mb 0.00 in0.0 mm 0.00 in0.0 mm 0.00 in0.0 mm
12:45 PM 87.2°F30.7°C 74.0°F23.3°C 65% 6.0 mph S9.7 kmh S 14.0 mph22.5 kmh 29.93 in1013.5 mb 0.00 in0.0 mm 0.00 in0.0 mm 0.00 in0.0 mm
12:50 PM 87.5°F30.8°C 73.8°F23.2°C 64% 7.0 mph S11.3 kmh S 14.0 mph22.5 kmh 29.93 in1013.5 mb 0.00 in0.0 mm 0.00 in0.0 mm 0.00 in0.0 mm
12:55 PM 87.6°F30.9°C 73.9°F23.3°C 64% 6.0 mph SSW9.7 kmh SSW 14.0 mph22.5 kmh 29.93 in1013.5 mb 0.00 in0.0 mm 0.00 in0.0 mm 0.00 in0.0 mm
01:00 PM 87.8°F31.0°C 74.6°F23.7°C 65% 5.0 mph SSW8.0 kmh SSW 12.0 mph19.3 kmh 29.93 in1013.5 mb 0.00 in0.0 mm 0.00 in0.0 mm 0.00 in0.0 mm
01:05 PM 87.7°F30.9°C 73.5°F23.1°C 63% 6.0 mph SSW9.7 kmh SSW 15.0 mph24.1 kmh 29.93 in1013.5 mb 0.00 in0.0 mm 0.00 in0.0 mm 0.00 in0.0 mm
01:10 PM 87.5°F30.8°C 73.8°F23.2°C 64% 7.0 mph S11.3 kmh S 15.0 mph24.1 kmh 29.92 in1013.2 mb 0.00 in0.0 mm 0.00 in0.0 mm 0.00 in0.0 mm
01:15 PM 87.5°F30.8°C 73.8°F23.2°C 64% 6.0 mph SSW9.7 kmh SSW 14.0 mph22.5 kmh 29.92 in1013.2 mb 0.00 in0.0 mm 0.00 in0.0 mm 0.00 in0.0 mm
01:20 PM 87.1°F30.6°C 73.4°F23.0°C 64% 6.0 mph SSW9.7 kmh SSW 14.0 mph22.5 kmh 29.92 in1013.2 mb 0.00 in0.0 mm 0.00 in0.0 mm 0.00 in0.0 mm
01:25 PM 86.7°F30.4°C 73.1°F22.8°C 64% 7.0 mph SSW11.3 kmh SSW 13.0 mph20.9 kmh 29.91 in1012.9 mb 0.00 in0.0 mm 0.00 in0.0 mm 0.00 in0.0 mm
01:30 PM 86.8°F30.4°C 73.6°F23.1°C 65% 7.0 mph SSW11.3 kmh SSW 13.0 mph20.9 kmh 29.91 in1012.9 mb 0.00 in0.0 mm 0.00 in0.0 mm 0.00 in0.0 mm
01:35 PM 86.7°F30.4°C 73.1°F22.8°C 64% 6.0 mph SSW9.7 kmh SSW 13.0 mph20.9 kmh 29.91 in1012.9 mb 0.00 in0.0 mm 0.00 in0.0 mm 0.00 in0.0 mm
01:40 PM 86.5°F30.3°C 73.3°F22.9°C 65% 6.0 mph SSW9.7 kmh SSW 14.0 mph22.5 kmh 29.91 in1012.9 mb 0.00 in0.0 mm 0.00 in0.0 mm 0.00 in0.0 mm
01:45 PM 86.9°F30.5°C 73.7°F23.2°C 65% 6.0 mph SSW9.7 kmh SSW 14.0 mph22.5 kmh 29.91 in1012.9 mb 0.00 in0.0 mm 0.00 in0.0 mm 0.00 in0.0 mm
01:50 PM 87.5°F30.8°C 74.3°F23.5°C 65% 6.0 mph SSW9.7 kmh SSW 15.0 mph24.1 kmh 29.91 in1012.9 mb 0.00 in0.0 mm 0.00 in0.0 mm 0.00 in0.0 mm
01:55 PM 87.3°F30.7°C 73.6°F23.1°C 64% 6.0 mph SSW9.7 kmh SSW 16.0 mph25.7 kmh 29.91 in1012.9 mb 0.00 in0.0 mm 0.00 in0.0 mm 0.00 in0.0 mm
02:00 PM 86.6°F30.3°C 73.4°F23.0°C 65% 7.0 mph SSW11.3 kmh SSW 16.0 mph25.7 kmh 29.91 in1012.9 mb 0.00 in0.0 mm 0.00 in0.0 mm 0.00 in0.0 mm
02:05 PM 86.0°F30.0°C 73.3°F22.9°C 66% 6.0 mph S9.7 kmh S 15.0 mph24.1 kmh 29.91 in1012.9 mb 0.00 in0.0 mm 0.00 in0.0 mm 0.00 in0.0 mm
02:10 PM 85.6°F29.8°C 72.9°F22.7°C 66% 6.0 mph SSW9.7 kmh SSW 15.0 mph24.1 kmh 29.91 in1012.9 mb 0.00 in0.0 mm 0.00 in0.0 mm 0.00 in0.0 mm
02:15 PM 85.6°F29.8°C 72.9°F22.7°C 66% 6.0 mph SSW9.7 kmh SSW 17.0 mph27.4 kmh 29.91 in1012.9 mb 0.00 in0.0 mm 0.00 in0.0 mm 0.00 in0.0 mm
02:20 PM 85.7°F29.8°C 72.6°F22.6°C 65% 5.0 mph SSW8.0 kmh SSW 17.0 mph27.4 kmh 29.90 in1012.5 mb 0.00 in0.0 mm 0.00 in0.0 mm 0.00 in0.0 mm
02:25 PM 85.8°F29.9°C 71.3°F21.8°C 62% 6.0 mph SSW9.7 kmh SSW 17.0 mph27.4 kmh 29.90 in1012.5 mb 0.00 in0.0 mm 0.00 in0.0 mm 0.00 in0.0 mm
02:30 PM 85.9°F29.9°C 71.8°F22.1°C 63% 7.0 mph SSW11.3 kmh SSW 17.0 mph27.4 kmh 29.90 in1012.5 mb 0.00 in0.0 mm 0.00 in0.0 mm 0.00 in0.0 mm
02:35 PM 85.8°F29.9°C 71.7°F22.1°C 63% 8.0 mph SSW12.9 kmh SSW 16.0 mph25.7 kmh 29.90 in1012.5 mb 0.00 in0.0 mm 0.00 in0.0 mm 0.00 in0.0 mm
02:40 PM 85.7°F29.8°C 71.7°F22.1°C 63% 7.0 mph SSW11.3 kmh SSW 16.0 mph25.7 kmh 29.90 in1012.5 mb 0.00 in0.0 mm 0.00 in0.0 mm 0.00 in0.0 mm
02:45 PM 85.8°F29.9°C 71.3°F21.8°C 62% 7.0 mph SSW11.3 kmh SSW 14.0 mph22.5 kmh 29.90 in1012.5 mb 0.00 in0.0 mm 0.00 in0.0 mm 0.00 in0.0 mm
02:50 PM 86.1°F30.1°C 71.6°F22.0°C 62% 8.0 mph S12.9 kmh S 17.0 mph27.4 kmh 29.90 in1012.5 mb 0.00 in0.0 mm 0.00 in0.0 mm 0.00 in0.0 mm
02:55 PM 86.5°F30.3°C 71.9°F22.2°C 62% 7.0 mph SSW11.3 kmh SSW 17.0 mph27.4 kmh 29.90 in1012.5 mb 0.00 in0.0 mm 0.00 in0.0 mm 0.00 in0.0 mm
03:00 PM 86.4°F30.2°C 71.8°F22.1°C 62% 7.0 mph SSW11.3 kmh SSW 13.0 mph20.9 kmh 29.90 in1012.5 mb 0.00 in0.0 mm 0.00 in0.0 mm 0.00 in0.0 mm
03:05 PM 86.2°F30.1°C 72.1°F22.3°C 63% 7.0 mph S11.3 kmh S 13.0 mph20.9 kmh 29.90 in1012.5 mb 0.00 in0.0 mm 0.00 in0.0 mm 0.00 in0.0 mm
03:10 PM 86.4°F30.2°C 72.3°F22.4°C 63% 6.0 mph SSW9.7 kmh SSW 14.0 mph22.5 kmh 29.90 in1012.5 mb 0.00 in0.0 mm 0.00 in0.0 mm 0.00 in0.0 mm
03:15 PM 86.6°F30.3°C 72.0°F22.2°C 62% 6.0 mph SSW9.7 kmh SSW 14.0 mph22.5 kmh 29.90 in1012.5 mb 0.00 in0.0 mm 0.00 in0.0 mm 0.00 in0.0 mm
03:20 PM 86.5°F30.3°C 71.9°F22.2°C 62% 6.0 mph SSW9.7 kmh SSW 14.0 mph22.5 kmh 29.90 in1012.5 mb 0.00 in0.0 mm 0.00 in0.0 mm 0.00 in0.0 mm
03:25 PM 86.3°F30.2°C 72.2°F22.3°C 63% 6.0 mph SW9.7 kmh SW 14.0 mph22.5 kmh 29.90 in1012.5 mb 0.00 in0.0 mm 0.00 in0.0 mm 0.00 in0.0 mm
03:30 PM 86.1°F30.1°C 72.0°F22.2°C 63% 5.0 mph SSW8.0 kmh SSW 10.0 mph16.1 kmh 29.90 in1012.5 mb 0.00 in0.0 mm 0.00 in0.0 mm 0.00 in0.0 mm
03:35 PM 86.0°F30.0°C 72.4°F22.4°C 64% 5.0 mph S8.0 kmh S 15.0 mph24.1 kmh 29.90 in1012.5 mb 0.00 in0.0 mm 0.00 in0.0 mm 0.00 in0.0 mm
03:40 PM 85.6°F29.8°C 72.0°F22.2°C 64% 6.0 mph SSW9.7 kmh SSW 15.0 mph24.1 kmh 29.90 in1012.5 mb 0.00 in0.0 mm 0.00 in0.0 mm 0.00 in0.0 mm
03:45 PM 85.4°F29.7°C 72.3°F22.4°C 65% 6.0 mph SSW9.7 kmh SSW 16.0 mph25.7 kmh 29.90 in1012.5 mb 0.00 in0.0 mm 0.00 in0.0 mm 0.00 in0.0 mm
03:50 PM 85.1°F29.5°C 72.5°F22.5°C 66% 7.0 mph SSW11.3 kmh SSW 16.0 mph25.7 kmh 29.90 in1012.5 mb 0.00 in0.0 mm 0.00 in0.0 mm 0.00 in0.0 mm
03:55 PM 84.9°F29.4°C 72.3°F22.4°C 66% 6.0 mph SSW9.7 kmh SSW 14.0 mph22.5 kmh 29.90 in1012.5 mb 0.00 in0.0 mm 0.00 in0.0 mm 0.00 in0.0 mm
04:00 PM 84.5°F29.2°C 72.3°F22.4°C 67% 6.0 mph SSW9.7 kmh SSW 14.0 mph22.5 kmh 29.90 in1012.5 mb 0.00 in0.0 mm 0.00 in0.0 mm 0.00 in0.0 mm
04:05 PM 84.4°F29.1°C 71.8°F22.1°C 66% 6.0 mph S9.7 kmh S 14.0 mph22.5 kmh 29.90 in1012.5 mb 0.00 in0.0 mm 0.00 in0.0 mm 0.00 in0.0 mm
04:10 PM 84.2°F29.0°C 71.6°F22.0°C 66% 6.0 mph S9.7 kmh S 14.0 mph22.5 kmh 29.91 in1012.9 mb 0.00 in0.0 mm 0.00 in0.0 mm 0.00 in0.0 mm
04:15 PM 84.0°F28.9°C 71.4°F21.9°C 66% 5.0 mph S8.0 kmh S 14.0 mph22.5 kmh 29.91 in1012.9 mb 0.00 in0.0 mm 0.00 in0.0 mm 0.00 in0.0 mm
04:20 PM 83.8°F28.8°C 70.8°F21.6°C 65% 4.0 mph SSW6.4 kmh SSW 10.0 mph16.1 kmh 29.90 in1012.5 mb 0.00 in0.0 mm 0.00 in0.0 mm 0.00 in0.0 mm
04:25 PM 83.5°F28.6°C 70.5°F21.4°C 65% 5.0 mph SSW8.0 kmh SSW 10.0 mph16.1 kmh 29.91 in1012.9 mb 0.00 in0.0 mm 0.00 in0.0 mm 0.00 in0.0 mm
04:30 PM 83.1°F28.4°C 69.7°F20.9°C 64% 5.0 mph SSW8.0 kmh SSW 12.0 mph19.3 kmh 29.91 in1012.9 mb 0.00 in0.0 mm 0.00 in0.0 mm 0.00 in0.0 mm
04:35 PM 82.9°F28.3°C 69.5°F20.8°C 64% 7.0 mph S11.3 kmh S 13.0 mph20.9 kmh 29.91 in1012.9 mb 0.00 in0.0 mm 0.00 in0.0 mm 0.00 in0.0 mm
04:40 PM 82.9°F28.3°C 69.5°F20.8°C 64% 7.0 mph S11.3 kmh S 14.0 mph22.5 kmh 29.91 in1012.9 mb 0.00 in0.0 mm 0.00 in0.0 mm 0.00 in0.0 mm
04:45 PM 82.7°F28.2°C 68.8°F20.4°C 63% 6.0 mph S9.7 kmh S 14.0 mph22.5 kmh 29.91 in1012.9 mb 0.00 in0.0 mm 0.00 in0.0 mm 0.00 in0.0 mm
04:50 PM 82.3°F27.9°C 68.0°F20.0°C 62% 6.0 mph S9.7 kmh S 12.0 mph19.3 kmh 29.91 in1012.9 mb 0.00 in0.0 mm 0.00 in0.0 mm 0.00 in0.0 mm
04:55 PM 82.1°F27.8°C 67.8°F19.9°C 62% 6.0 mph S9.7 kmh S 10.0 mph16.1 kmh 29.91 in1012.9 mb 0.00 in0.0 mm 0.00 in0.0 mm 0.00 in0.0 mm
05:00 PM 81.9°F27.7°C 67.6°F19.8°C 62% 5.0 mph S8.0 kmh S 9.0 mph14.5 kmh 29.91 in1012.9 mb 0.00 in0.0 mm 0.00 in0.0 mm 0.00 in0.0 mm
05:05 PM 81.8°F27.7°C 67.0°F19.4°C 61% 4.0 mph S6.4 kmh S 10.0 mph16.1 kmh 29.91 in1012.9 mb 0.00 in0.0 mm 0.00 in0.0 mm 0.00 in0.0 mm
05:10 PM 81.6°F27.6°C 66.4°F19.1°C 60% 4.0 mph S6.4 kmh S 12.0 mph19.3 kmh 29.91 in1012.9 mb 0.00 in0.0 mm 0.00 in0.0 mm 0.00 in0.0 mm
05:15 PM 81.3°F27.4°C 65.6°F18.7°C 59% 4.0 mph S6.4 kmh S 12.0 mph19.3 kmh 29.92 in1013.2 mb 0.00 in0.0 mm 0.00 in0.0 mm 0.00 in0.0 mm
05:20 PM 81.0°F27.2°C 64.3°F17.9°C 57% 3.0 mph S4.8 kmh S 7.0 mph11.3 kmh 29.92 in1013.2 mb 0.00 in0.0 mm 0.00 in0.0 mm 0.00 in0.0 mm
05:25 PM 80.8°F27.1°C 63.6°F17.6°C 56% 3.0 mph S4.8 kmh S 7.0 mph11.3 kmh 29.92 in1013.2 mb 0.00 in0.0 mm 0.00 in0.0 mm 0.00 in0.0 mm
05:30 PM 80.5°F26.9°C 62.3°F16.8°C 54% 3.0 mph S4.8 kmh S 7.0 mph11.3 kmh 29.92 in1013.2 mb 0.00 in0.0 mm 0.00 in0.0 mm 0.00 in0.0 mm
05:35 PM 80.2°F26.8°C 61.0°F16.1°C 52% 4.0 mph S6.4 kmh S 8.0 mph12.9 kmh 29.92 in1013.2 mb 0.00 in0.0 mm 0.00 in0.0 mm 0.00 in0.0 mm
05:40 PM 79.9°F26.6°C 60.2°F15.7°C 51% 4.0 mph S6.4 kmh S 8.0 mph12.9 kmh 29.92 in1013.2 mb 0.00 in0.0 mm 0.00 in0.0 mm 0.00 in0.0 mm
05:45 PM 79.6°F26.4°C 59.3°F15.2°C 50% 4.0 mph S6.4 kmh S 8.0 mph12.9 kmh 29.93 in1013.5 mb 0.00 in0.0 mm 0.00 in0.0 mm 0.00 in0.0 mm
05:50 PM 79.4°F26.3°C 58.6°F14.8°C 49% 4.0 mph S6.4 kmh S 7.0 mph11.3 kmh 29.93 in1013.5 mb 0.00 in0.0 mm 0.00 in0.0 mm 0.00 in0.0 mm
05:55 PM 79.1°F26.2°C 57.7°F14.3°C 48% 4.0 mph S6.4 kmh S 8.0 mph12.9 kmh 29.93 in1013.5 mb 0.00 in0.0 mm 0.00 in0.0 mm 0.00 in0.0 mm
06:00 PM 78.9°F26.1°C 56.4°F13.6°C 46% 3.0 mph S4.8 kmh S 8.0 mph12.9 kmh 29.93 in1013.5 mb 0.00 in0.0 mm 0.00 in0.0 mm 0.00 in0.0 mm
06:05 PM 78.7°F25.9°C 55.6°F13.1°C 45% 3.0 mph S4.8 kmh S 6.0 mph9.7 kmh 29.93 in1013.5 mb 0.00 in0.0 mm 0.00 in0.0 mm 0.00 in0.0 mm
06:10 PM 78.5°F25.8°C 54.1°F12.3°C 43% 2.0 mph S3.2 kmh S 5.0 mph8.0 kmh 29.93 in1013.5 mb 0.00 in0.0 mm 0.00 in0.0 mm 0.00 in0.0 mm
06:15 PM 78.2°F25.7°C 52.6°F11.4°C 41% 2.0 mph S3.2 kmh S 5.0 mph8.0 kmh 29.93 in1013.5 mb 0.00 in0.0 mm 0.00 in0.0 mm 0.00 in0.0 mm
06:20 PM 78.0°F25.6°C 51.0°F10.6°C 39% 1.0 mph S1.6 kmh S 4.0 mph6.4 kmh 29.93 in1013.5 mb 0.00 in0.0 mm 0.00 in0.0 mm 0.00 in0.0 mm
06:25 PM 77.7°F25.4°C 48.6°F9.2°C 36% 1.0 mph S1.6 kmh S 4.0 mph6.4 kmh 29.93 in1013.5 mb 0.00 in0.0 mm 0.00 in0.0 mm 0.00 in0.0 mm
06:30 PM 77.5°F25.3°C 47.7°F8.7°C 35% 1.0 mph S1.6 kmh S 4.0 mph6.4 kmh 29.94 in1013.9 mb 0.00 in0.0 mm 0.00 in0.0 mm 0.00 in0.0 mm
06:35 PM 77.2°F25.1°C 45.0°F7.2°C 32% 1.0 mph S1.6 kmh S 2.0 mph3.2 kmh 29.94 in1013.9 mb 0.00 in0.0 mm 0.00 in0.0 mm 0.00 in0.0 mm
06:40 PM 76.9°F24.9°C 43.1°F6.2°C 30% 1.0 mph S1.6 kmh S 2.0 mph3.2 kmh 29.94 in1013.9 mb 0.00 in0.0 mm 0.00 in0.0 mm 0.00 in0.0 mm
06:45 PM 76.6°F24.8°C 40.1°F4.5°C 27% 1.0 mph S1.6 kmh S 3.0 mph4.8 kmh 29.95 in1014.2 mb 0.00 in0.0 mm 0.00 in0.0 mm 0.00 in0.0 mm
06:50 PM 76.3°F24.6°C 34.6°F1.4°C 22% 1.0 mph S1.6 kmh S 3.0 mph4.8 kmh 29.95 in1014.2 mb 0.00 in0.0 mm 0.00 in0.0 mm 0.00 in0.0 mm
06:55 PM 76.1°F24.5°C 25.1°F-3.8°C 15% 1.0 mph S1.6 kmh S 4.0 mph6.4 kmh 29.95 in1014.2 mb 0.00 in0.0 mm 0.00 in0.0 mm 0.00 in0.0 mm
07:00 PM 75.9°F24.4°C 7.3°F-13.7°C 7% 2.0 mph S3.2 kmh S 5.0 mph8.0 kmh 29.95 in1014.2 mb 0.00 in0.0 mm 0.00 in0.0 mm 0.00 in0.0 mm
07:05 PM 75.8°F24.3°C -4.8°F-20.4°C 4% 2.0 mph S3.2 kmh S 5.0 mph8.0 kmh 29.95 in1014.2 mb 0.00 in0.0 mm 0.00 in0.0 mm 0.00 in0.0 mm
07:10 PM 75.7°F24.3°C -31.8°F-35.4°C 0% 2.0 mph S3.2 kmh S 5.0 mph8.0 kmh 29.95 in1014.2 mb 0.00 in0.0 mm 0.00 in0.0 mm 0.00 in0.0 mm
07:15 PM 75.7°F24.3°C -31.8°F-35.4°C 0% 2.0 mph S3.2 kmh S 5.0 mph8.0 kmh 29.95 in1014.2 mb 0.00 in0.0 mm 0.00 in0.0 mm 0.00 in0.0 mm
07:20 PM 75.6°F24.2°C -31.8°F-35.4°C 0% 3.0 mph S4.8 kmh S 5.0 mph8.0 kmh 29.95 in1014.2 mb 0.00 in0.0 mm 0.00 in0.0 mm 0.00 in0.0 mm
07:25 PM 75.5°F24.2°C -31.8°F-35.4°C 0% 2.0 mph S3.2 kmh S 4.0 mph6.4 kmh 29.95 in1014.2 mb 0.00 in0.0 mm 0.00 in0.0 mm 0.00 in0.0 mm
07:30 PM 75.5°F24.2°C -31.8°F-35.4°C 0% 2.0 mph S3.2 kmh S 4.0 mph6.4 kmh 29.95 in1014.2 mb 0.00 in0.0 mm 0.00 in0.0 mm 0.00 in0.0 mm
07:35 PM 75.4°F24.1°C -31.8°F-35.4°C 0% 2.0 mph S3.2 kmh S 4.0 mph6.4 kmh 29.96 in1014.6 mb 0.00 in0.0 mm 0.00 in0.0 mm 0.00 in0.0 mm
07:40 PM 75.3°F24.1°C -31.8°F-35.4°C 0% 2.0 mph S3.2 kmh S 5.0 mph8.0 kmh 29.95 in1014.2 mb 0.00 in0.0 mm 0.00 in0.0 mm 0.00 in0.0 mm
07:45 PM 75.3°F24.1°C -31.8°F-35.4°C 0% 2.0 mph S3.2 kmh S 5.0 mph8.0 kmh 29.96 in1014.6 mb 0.00 in0.0 mm 0.00 in0.0 mm 0.00 in0.0 mm
07:50 PM 75.3°F24.1°C -31.8°F-35.4°C 0% 2.0 mph S3.2 kmh S 6.0 mph9.7 kmh 29.96 in1014.6 mb 0.00 in0.0 mm 0.00 in0.0 mm 0.00 in0.0 mm
07:55 PM 75.2°F24.0°C -31.8°F-35.4°C 0% 3.0 mph S4.8 kmh S 6.0 mph9.7 kmh 29.96 in1014.6 mb 0.00 in0.0 mm 0.00 in0.0 mm 0.00 in0.0 mm
08:00 PM 75.1°F23.9°C -31.8°F-35.4°C 0% 3.0 mph S4.8 kmh S 5.0 mph8.0 kmh 29.96 in1014.6 mb 0.00 in0.0 mm 0.00 in0.0 mm 0.00 in0.0 mm
08:05 PM 75.0°F23.9°C -31.8°F-35.4°C 0% 3.0 mph SSE4.8 kmh SSE 6.0 mph9.7 kmh 29.96 in1014.6 mb 0.00 in0.0 mm 0.00 in0.0 mm 0.00 in0.0 mm
08:10 PM 74.9°F23.8°C -31.8°F-35.4°C 0% 3.0 mph S4.8 kmh S 6.0 mph9.7 kmh 29.96 in1014.6 mb 0.00 in0.0 mm 0.00 in0.0 mm 0.00 in0.0 mm
08:15 PM 74.8°F23.8°C -31.8°F-35.4°C 0% 3.0 mph S4.8 kmh S 5.0 mph8.0 kmh 29.96 in1014.6 mb 0.00 in0.0 mm 0.00 in0.0 mm 0.00 in0.0 mm
08:20 PM 74.7°F23.7°C -31.8°F-35.4°C 0% 3.0 mph S4.8 kmh S 6.0 mph9.7 kmh 29.96 in1014.6 mb 0.00 in0.0 mm 0.00 in0.0 mm 0.00 in0.0 mm
08:25 PM 74.6°F23.7°C -31.8°F-35.4°C 0% 3.0 mph S4.8 kmh S 6.0 mph9.7 kmh 29.96 in1014.6 mb 0.00 in0.0 mm 0.00 in0.0 mm 0.00 in0.0 mm
08:30 PM 74.6°F23.7°C -31.8°F-35.4°C 0% 3.0 mph S4.8 kmh S 7.0 mph11.3 kmh 29.96 in1014.6 mb 0.00 in0.0 mm 0.00 in0.0 mm 0.00 in0.0 mm
08:35 PM 74.7°F23.7°C -31.8°F-35.4°C 0% 3.0 mph S4.8 kmh S 8.0 mph12.9 kmh 29.96 in1014.6 mb 0.00 in0.0 mm 0.00 in0.0 mm 0.00 in0.0 mm
08:40 PM 74.7°F23.7°C -31.8°F-35.4°C 0% 3.0 mph S4.8 kmh S 8.0 mph12.9 kmh 29.96 in1014.6 mb 0.00 in0.0 mm 0.00 in0.0 mm 0.00 in0.0 mm
08:45 PM 74.8°F23.8°C -31.8°F-35.4°C 0% 3.0 mph S4.8 kmh S 7.0 mph11.3 kmh 29.96 in1014.6 mb 0.00 in0.0 mm 0.00 in0.0 mm 0.00 in0.0 mm
08:50 PM 74.8°F23.8°C -31.8°F-35.4°C 0% 3.0 mph S4.8 kmh S 7.0 mph11.3 kmh 29.96 in1014.6 mb 0.00 in0.0 mm 0.00 in0.0 mm 0.00 in0.0 mm
08:55 PM 74.7°F23.7°C -31.8°F-35.4°C 0% 3.0 mph S4.8 kmh S 6.0 mph9.7 kmh 29.96 in1014.6 mb 0.00 in0.0 mm 0.00 in0.0 mm 0.00 in0.0 mm
09:00 PM 74.7°F23.7°C -31.8°F-35.4°C 0% 3.0 mph S4.8 kmh S 5.0 mph8.0 kmh 29.96 in1014.6 mb 0.00 in0.0 mm 0.00 in0.0 mm 0.00 in0.0 mm
09:05 PM 74.6°F23.7°C -31.8°F-35.4°C 0% 3.0 mph S4.8 kmh S 5.0 mph8.0 kmh 29.96 in1014.6 mb 0.00 in0.0 mm 0.00 in0.0 mm 0.00 in0.0 mm
09:10 PM 74.6°F23.7°C -31.8°F-35.4°C 0% 3.0 mph S4.8 kmh S 6.0 mph9.7 kmh 29.96 in1014.6 mb 0.00 in0.0 mm 0.00 in0.0 mm 0.00 in0.0 mm
09:15 PM 74.6°F23.7°C -31.8°F-35.4°C 0% 3.0 mph S4.8 kmh S 6.0 mph9.7 kmh 29.96 in1014.6 mb 0.00 in0.0 mm 0.00 in0.0 mm 0.00 in0.0 mm
09:20 PM 74.5°F23.6°C -31.8°F-35.4°C 0% 3.0 mph S4.8 kmh S 5.0 mph8.0 kmh 29.96 in1014.6 mb 0.00 in0.0 mm 0.00 in0.0 mm 0.00 in0.0 mm
09:25 PM 74.5°F23.6°C -31.8°F-35.4°C 0% 3.0 mph S4.8 kmh S 6.0 mph9.7 kmh 29.96 in1014.6 mb 0.00 in0.0 mm 0.00 in0.0 mm 0.00 in0.0 mm
09:30 PM 74.4°F23.6°C -31.8°F-35.4°C 0% 3.0 mph S4.8 kmh S 7.0 mph11.3 kmh 29.96 in1014.6 mb 0.00 in0.0 mm 0.00 in0.0 mm 0.00 in0.0 mm
09:35 PM 74.4°F23.6°C -31.8°F-35.4°C 0% 4.0 mph S6.4 kmh S 7.0 mph11.3 kmh 29.96 in1014.6 mb 0.00 in0.0 mm 0.00 in0.0 mm 0.00 in0.0 mm
09:40 PM 74.3°F23.5°C -31.8°F-35.4°C 0% 4.0 mph S6.4 kmh S 8.0 mph12.9 kmh 29.96 in1014.6 mb 0.00 in0.0 mm 0.00 in0.0 mm 0.00 in0.0 mm
09:45 PM 74.3°F23.5°C -31.8°F-35.4°C 0% 4.0 mph S6.4 kmh S 8.0 mph12.9 kmh 29.96 in1014.6 mb 0.00 in0.0 mm 0.00 in0.0 mm 0.00 in0.0 mm
09:50 PM 74.3°F23.5°C -31.8°F-35.4°C 0% 4.0 mph S6.4 kmh S 8.0 mph12.9 kmh 29.96 in1014.6 mb 0.00 in0.0 mm 0.00 in0.0 mm 0.00 in0.0 mm
09:55 PM 74.3°F23.5°C -31.8°F-35.4°C 0% 4.0 mph S6.4 kmh S 7.0 mph11.3 kmh 29.96 in1014.6 mb 0.00 in0.0 mm 0.00 in0.0 mm 0.00 in0.0 mm
10:00 PM 74.2°F23.4°C -31.8°F-35.4°C 0% 3.0 mph S4.8 kmh S 7.0 mph11.3 kmh 29.96 in1014.6 mb 0.00 in0.0 mm 0.00 in0.0 mm 0.00 in0.0 mm
10:05 PM 74.1°F23.4°C -31.8°F-35.4°C 0% 2.0 mph S3.2 kmh S 6.0 mph9.7 kmh 29.97 in1014.9 mb 0.00 in0.0 mm 0.00 in0.0 mm 0.00 in0.0 mm
10:10 PM 74.0°F23.3°C -31.8°F-35.4°C 0% 2.0 mph S3.2 kmh S 4.0 mph6.4 kmh 29.97 in1014.9 mb 0.00 in0.0 mm 0.00 in0.0 mm 0.00 in0.0 mm
10:15 PM 74.0°F23.3°C -31.8°F-35.4°C 0% 3.0 mph S4.8 kmh S 8.0 mph12.9 kmh 29.97 in1014.9 mb 0.00 in0.0 mm 0.00 in0.0 mm 0.00 in0.0 mm
10:20 PM 74.0°F23.3°C -31.8°F-35.4°C 0% 3.0 mph S4.8 kmh S 8.0 mph12.9 kmh 29.97 in1014.9 mb 0.00 in0.0 mm 0.00 in0.0 mm 0.00 in0.0 mm
10:25 PM 74.0°F23.3°C -31.8°F-35.4°C 0% 4.0 mph S6.4 kmh S 7.0 mph11.3 kmh 29.97 in1014.9 mb 0.00 in0.0 mm 0.00 in0.0 mm 0.00 in0.0 mm
10:30 PM 74.0°F23.3°C -31.8°F-35.4°C 0% 4.0 mph S6.4 kmh S 10.0 mph16.1 kmh 29.97 in1014.9 mb 0.00 in0.0 mm 0.00 in0.0 mm 0.00 in0.0 mm
10:35 PM 74.0°F23.3°C -31.8°F-35.4°C 0% 4.0 mph S6.4 kmh S 10.0 mph16.1 kmh 29.96 in1014.6 mb 0.00 in0.0 mm 0.00 in0.0 mm 0.00 in0.0 mm
10:40 PM 74.0°F23.3°C -31.8°F-35.4°C 0% 4.0 mph S6.4 kmh S 9.0 mph14.5 kmh 29.96 in1014.6 mb 0.00 in0.0 mm 0.00 in0.0 mm 0.00 in0.0 mm
10:45 PM 74.0°F23.3°C -31.8°F-35.4°C 0% 4.0 mph S6.4 kmh S 8.0 mph12.9 kmh 29.96 in1014.6 mb 0.00 in0.0 mm 0.00 in0.0 mm 0.00 in0.0 mm
10:50 PM 74.0°F23.3°C -31.8°F-35.4°C 0% 4.0 mph S6.4 kmh S 8.0 mph12.9 kmh 29.96 in1014.6 mb 0.00 in0.0 mm 0.00 in0.0 mm 0.00 in0.0 mm
10:55 PM 73.9°F23.3°C -31.8°F-35.4°C 0% 4.0 mph S6.4 kmh S 7.0 mph11.3 kmh 29.96 in1014.6 mb 0.00 in0.0 mm 0.00 in0.0 mm 0.00 in0.0 mm
11:00 PM 73.9°F23.3°C -31.8°F-35.4°C 0% 4.0 mph S6.4 kmh S 8.0 mph12.9 kmh 29.96 in1014.6 mb 0.00 in0.0 mm 0.00 in0.0 mm 0.00 in0.0 mm
11:05 PM 73.9°F23.3°C -31.8°F-35.4°C 0% 4.0 mph S6.4 kmh S 8.0 mph12.9 kmh 29.96 in1014.6 mb 0.00 in0.0 mm 0.00 in0.0 mm 0.00 in0.0 mm
11:10 PM 73.8°F23.2°C -31.8°F-35.4°C 0% 4.0 mph S6.4 kmh S 8.0 mph12.9 kmh 29.96 in1014.6 mb 0.00 in0.0 mm 0.00 in0.0 mm 0.00 in0.0 mm
11:15 PM 73.8°F23.2°C -31.8°F-35.4°C 0% 4.0 mph S6.4 kmh S 8.0 mph12.9 kmh 29.96 in1014.6 mb 0.00 in0.0 mm 0.00 in0.0 mm 0.00 in0.0 mm
11:20 PM 73.8°F23.2°C -31.8°F-35.4°C 0% 4.0 mph S6.4 kmh S 8.0 mph12.9 kmh 29.96 in1014.6 mb 0.00 in0.0 mm 0.00 in0.0 mm 0.00 in0.0 mm
11:25 PM 73.7°F23.2°C -31.8°F-35.4°C 0% 4.0 mph S6.4 kmh S 8.0 mph12.9 kmh 29.96 in1014.6 mb 0.00 in0.0 mm 0.00 in0.0 mm 0.00 in0.0 mm
11:30 PM 73.7°F23.2°C -31.8°F-35.4°C 0% 4.0 mph S6.4 kmh S 9.0 mph14.5 kmh 29.96 in1014.6 mb 0.00 in0.0 mm 0.00 in0.0 mm 0.00 in0.0 mm
11:35 PM 73.6°F23.1°C -31.8°F-35.4°C 0% 4.0 mph S6.4 kmh S 9.0 mph14.5 kmh 29.96 in1014.6 mb 0.00 in0.0 mm 0.00 in0.0 mm 0.00 in0.0 mm
11:40 PM 73.6°F23.1°C -31.8°F-35.4°C 0% 4.0 mph S6.4 kmh S 8.0 mph12.9 kmh 29.96 in1014.6 mb 0.00 in0.0 mm 0.00 in0.0 mm 0.00 in0.0 mm
11:45 PM 73.6°F23.1°C -31.8°F-35.4°C 0% 4.0 mph S6.4 kmh S 10.0 mph16.1 kmh 29.96 in1014.6 mb 0.00 in0.0 mm 0.00 in0.0 mm 0.00 in0.0 mm
11:50 PM 73.6°F23.1°C -31.8°F-35.4°C 0% 4.0 mph S6.4 kmh S 12.0 mph19.3 kmh 29.95 in1014.2 mb 0.00 in0.0 mm 0.00 in0.0 mm 0.00 in0.0 mm
11:55 PM 73.6°F23.1°C -31.8°F-35.4°C 0% 4.0 mph S6.4 kmh S 12.0 mph19.3 kmh 29.95 in1014.2 mb 0.00 in0.0 mm 0.00 in0.0 mm 0.00 in0.0 mm